Terminal Aerodrome Forecast
Issued by NWS Nashville, TN

Home | Current Version | Previous Version | Text Only | Print | Product List | Glossary On
Versions: 1 2 3 4 5 6 7 8 9 10 11 12 13 14 15 16 17 18 19 20 21 22 23 24 25 26 27 28
113
FTUS44 KOHX 262320
TAFBNA
TAF
KBNA 262320Z 2700/2724 21009KT P6SM FEW060 BKN080 BKN090
     FM270400 VRB03KT P6SM SCT160
     FM271500 19009KT P6SM OVC070
     FM271800 19012G18KT P6SM VCSH BKN050 OVC070 PROB30 2722/2724
      4SM -TSRA OVC035CB=

USA.gov is the U.S. government's official web portal to all federal, state and local government web resources and services.